createdAt,value
2019-04-27T00:01:40.620Z,12.45
2019-04-27T00:04:19.314Z,13.85
2019-04-27T00:06:50.577Z,12.43
2019-04-27T00:09:27.253Z,12.88
2019-04-27T00:11:58.332Z,13.28
2019-04-27T00:14:27.746Z,13.43
2019-04-27T00:17:21.154Z,14.07
2019-04-27T00:20:05.764Z,15.80
2019-04-27T00:22:39.682Z,15.18
2019-04-27T00:25:09.637Z,13.83
2019-04-27T00:27:39.043Z,15.58
2019-04-27T00:30:09.242Z,14.53
2019-04-27T00:32:39.832Z,15.63
2019-04-27T00:35:11.218Z,15.68
2019-04-27T00:37:42.709Z,15.38
2019-04-27T00:40:33.438Z,14.95
2019-04-27T00:43:03.086Z,15.38
2019-04-27T00:45:33.554Z,15.65
2019-04-27T00:48:03.642Z,17.92
2019-04-27T00:50:33.820Z,15.40
2019-04-27T00:53:03.579Z,16.82
2019-04-27T00:55:34.711Z,13.62
2019-04-27T00:58:05.850Z,15.15
2019-04-27T01:00:36.981Z,15.85
2019-04-27T01:03:14.005Z,15.65
2019-04-27T01:05:43.479Z,18.57
2019-04-27T01:08:13.891Z,15.83
2019-04-27T01:10:43.588Z,18.25
2019-04-27T01:13:13.437Z,17.50
2019-04-27T01:15:43.070Z,15.30
2019-04-27T01:18:15.342Z,16.77
2019-04-27T01:20:43.780Z,17.70
2019-04-27T01:23:13.363Z,17.20
2019-04-27T01:25:47.130Z,19.67
2019-04-27T01:28:21.223Z,16.57
2019-04-27T01:31:09.247Z,19.42
2019-04-27T01:33:39.016Z,17.40
2019-04-27T01:36:10.616Z,20.20
2019-04-27T01:38:41.066Z,17.10
2019-04-27T01:41:10.673Z,19.70
2019-04-27T01:43:40.118Z,16.40
2019-04-27T01:46:09.605Z,17.98
2019-04-27T01:48:39.021Z,21.90
2019-04-27T01:51:09.225Z,17.92
2019-04-27T01:53:39.148Z,17.55
2019-04-27T01:56:09.246Z,19.27
2019-04-27T01:58:39.335Z,19.40
2019-04-27T02:01:13.064Z,17.98
2019-04-27T02:03:44.083Z,19.27
2019-04-27T02:06:13.572Z,18.52
2019-04-27T02:08:43.019Z,20.27
2019-04-27T02:11:12.441Z,18.32
2019-04-27T02:13:41.818Z,20.37
2019-04-27T02:16:11.712Z,18.40
2019-04-27T02:18:41.233Z,20.85
2019-04-27T02:21:10.718Z,19.35
2019-04-27T02:23:40.150Z,20.30
2019-04-27T02:26:10.040Z,22.52
2019-04-27T02:28:41.063Z,19.80
2019-04-27T02:31:30.195Z,23.10
2019-04-27T02:34:04.264Z,20.65
2019-04-27T02:36:33.612Z,20.90
2019-04-27T02:39:03.020Z,23.67
2019-04-27T02:41:32.360Z,20.97
2019-04-27T02:44:03.442Z,22.52
2019-04-27T02:46:32.927Z,23.15
2019-04-27T02:49:06.446Z,22.80
2019-04-27T02:51:35.163Z,22.95
2019-04-27T02:54:04.680Z,22.85
2019-04-27T02:56:34.036Z,21.52
2019-04-27T02:59:03.609Z,23.87
2019-04-27T03:01:46.228Z,25.35
2019-04-27T03:04:11.435Z,25.17
2019-04-27T03:06:40.913Z,26.95
2019-04-27T03:09:10.601Z,25.32
2019-04-27T03:11:40.015Z,26.25
2019-04-27T03:14:29.423Z,23.00
2019-04-27T03:16:56.280Z,25.65
2019-04-27T03:19:36.313Z,23.73
2019-04-27T03:22:09.674Z,26.97
2019-04-27T03:25:00.007Z,26.10
2019-04-27T03:27:31.504Z,24.52
2019-04-27T03:30:01.299Z,29.50
2019-04-27T03:32:31.791Z,28.23
2019-04-27T03:35:03.109Z,27.75
2019-04-27T03:37:32.716Z,26.45
2019-04-27T03:40:02.235Z,28.12
2019-04-27T03:42:37.153Z,24.60
2019-04-27T03:45:06.764Z,25.50
2019-04-27T03:47:36.372Z,29.45
2019-04-27T03:50:11.138Z,26.60
2019-04-27T03:52:59.944Z,23.57
2019-04-27T03:55:31.287Z,23.00
2019-04-27T03:58:21.706Z,24.82
2019-04-27T04:00:53.029Z,25.02
2019-04-27T04:03:22.516Z,25.72
2019-04-27T04:05:52.265Z,26.42
2019-04-27T04:08:21.682Z,25.82
2019-04-27T04:10:52.967Z,24.37
2019-04-27T04:13:33.049Z,26.35
2019-04-27T04:16:07.436Z,26.07
2019-04-27T04:18:53.204Z,18.90
2019-04-27T04:21:22.652Z,23.90
2019-04-27T04:23:52.141Z,23.42
2019-04-27T04:26:21.655Z,28.32
2019-04-27T04:28:51.139Z,27.17
2019-04-27T04:31:21.107Z,24.63
2019-04-27T04:33:50.940Z,26.68
2019-04-27T04:36:20.449Z,37.40
2019-04-27T04:38:50.520Z,31.50
2019-04-27T04:41:30.840Z,26.48
2019-04-27T04:44:20.287Z,24.50
2019-04-27T04:46:50.762Z,23.50
2019-04-27T04:49:20.182Z,22.42
2019-04-27T04:51:50.362Z,24.02
2019-04-27T04:54:24.231Z,24.02
2019-04-27T04:56:51.046Z,24.20
2019-04-27T04:59:20.460Z,24.25
2019-04-27T05:01:50.160Z,24.12
2019-04-27T05:04:19.542Z,23.25
2019-04-27T05:06:50.705Z,21.07
2019-04-27T05:09:20.039Z,21.12
2019-04-27T05:11:49.414Z,20.65
2019-04-27T05:14:19.985Z,20.90
2019-04-27T05:16:49.923Z,24.20
2019-04-27T05:19:19.334Z,22.07
2019-04-27T05:21:49.217Z,19.45
2019-04-27T05:24:19.278Z,22.37
2019-04-27T05:26:48.868Z,19.82
2019-04-27T05:29:19.155Z,22.00
2019-04-27T05:31:49.077Z,19.00
2019-04-27T05:34:19.735Z,20.05
2019-04-27T05:36:52.451Z,19.60
2019-04-27T05:39:24.901Z,18.17
2019-04-27T05:41:51.656Z,18.67
2019-04-27T05:44:31.525Z,20.02
2019-04-27T05:47:10.011Z,19.10
2019-04-27T05:49:44.510Z,17.12
2019-04-27T05:52:29.386Z,19.50
2019-04-27T05:54:59.682Z,20.23
2019-04-27T05:57:31.464Z,18.05
2019-04-27T06:00:09.266Z,16.45
2019-04-27T06:02:39.856Z,16.65
2019-04-27T06:05:09.658Z,17.70
2019-04-27T06:07:39.650Z,18.15
2019-04-27T06:10:09.730Z,15.68
2019-04-27T06:12:39.614Z,14.95
2019-04-27T06:15:09.837Z,18.50
2019-04-27T06:17:39.310Z,18.62
2019-04-27T06:20:09.413Z,24.52
2019-04-27T06:22:39.100Z,19.42
2019-04-27T06:25:11.901Z,16.00
2019-04-27T06:27:39.859Z,15.28
2019-04-27T06:30:12.106Z,16.27
2019-04-27T06:32:41.208Z,17.75
2019-04-27T06:35:12.428Z,15.35
2019-04-27T06:37:41.883Z,14.83
2019-04-27T06:40:11.454Z,14.43
2019-04-27T06:42:40.904Z,14.75
2019-04-27T06:45:10.477Z,15.60
2019-04-27T06:47:41.447Z,15.88
2019-04-27T06:50:11.480Z,16.95
2019-04-27T06:52:40.861Z,15.85
2019-04-27T06:55:10.355Z,14.60
2019-04-27T06:57:41.195Z,23.90
2019-04-27T07:00:11.128Z,16.12
2019-04-27T07:02:40.481Z,15.35
2019-04-27T07:05:10.304Z,13.70
2019-04-27T07:07:39.808Z,18.30
2019-04-27T07:10:10.927Z,15.55
2019-04-27T07:12:41.109Z,17.40
2019-04-27T07:15:10.985Z,16.37
2019-04-27T07:17:40.739Z,15.85
2019-04-27T07:20:11.640Z,14.40
2019-04-27T07:22:41.006Z,16.55
2019-04-27T07:25:10.918Z,19.35
2019-04-27T07:27:40.269Z,15.80
2019-04-27T07:30:11.858Z,16.67
2019-04-27T07:32:41.290Z,16.05
2019-04-27T07:35:10.921Z,17.25
2019-04-27T07:37:40.415Z,16.65
2019-04-27T07:40:10.160Z,17.30
2019-04-27T07:42:41.435Z,18.90
2019-04-27T07:45:19.562Z,16.52
2019-04-27T07:47:50.550Z,16.32
2019-04-27T07:50:19.999Z,17.92
2019-04-27T07:52:49.356Z,17.20
2019-04-27T07:55:18.810Z,17.12
2019-04-27T07:57:49.451Z,16.93
2019-04-27T08:00:20.672Z,18.12
2019-04-27T08:02:50.106Z,18.02
2019-04-27T08:05:19.557Z,17.17
2019-04-27T08:07:49.230Z,20.45
2019-04-27T08:10:19.356Z,16.93
2019-04-27T08:12:49.857Z,15.40
2019-04-27T08:15:19.512Z,18.12
2019-04-27T08:17:49.349Z,14.83
2019-04-27T08:20:21.102Z,15.23
2019-04-27T08:22:50.053Z,14.15
2019-04-27T08:25:19.468Z,16.00
2019-04-27T08:28:00.292Z,17.57
2019-04-27T08:30:34.271Z,15.50
2019-04-27T08:33:05.403Z,18.80
2019-04-27T08:35:35.377Z,14.70
2019-04-27T08:38:05.192Z,15.25
2019-04-27T08:40:34.750Z,16.30
2019-04-27T08:43:04.337Z,15.25
2019-04-27T08:45:33.790Z,17.50
2019-04-27T08:48:03.510Z,14.68
2019-04-27T08:50:33.084Z,15.58
2019-04-27T08:53:02.447Z,14.10
2019-04-27T08:55:32.106Z,12.78
2019-04-27T08:58:01.465Z,15.18
2019-04-27T09:00:31.058Z,13.35
2019-04-27T09:03:00.892Z,14.20
2019-04-27T09:05:30.287Z,15.50
2019-04-27T09:08:18.960Z,12.58
2019-04-27T09:10:50.751Z,11.22
2019-04-27T09:13:33.906Z,13.85
2019-04-27T09:16:11.148Z,12.07
2019-04-27T09:18:41.183Z,14.43
2019-04-27T09:21:10.765Z,13.62
2019-04-27T09:23:40.513Z,13.38
2019-04-27T09:26:11.203Z,11.78
2019-04-27T09:28:40.664Z,12.43
2019-04-27T09:31:11.754Z,11.25
2019-04-27T09:33:41.920Z,11.88
2019-04-27T09:36:12.433Z,14.30
2019-04-27T09:38:41.803Z,11.20
2019-04-27T09:41:11.187Z,10.98
2019-04-27T09:43:41.867Z,11.30
2019-04-27T09:46:11.745Z,10.35
2019-04-27T09:48:41.177Z,9.93
2019-04-27T09:51:10.772Z,12.03
2019-04-27T09:53:40.544Z,11.38
2019-04-27T09:56:10.592Z,16.65
2019-04-27T09:58:40.489Z,9.08
2019-04-27T10:01:10.401Z,9.58
2019-04-27T10:03:39.813Z,9.00
2019-04-27T10:06:09.594Z,10.25
2019-04-27T10:08:39.163Z,9.53
2019-04-27T10:11:08.735Z,9.50
2019-04-27T10:13:38.114Z,10.45
2019-04-27T10:16:07.868Z,7.58
2019-04-27T10:18:37.284Z,9.90
2019-04-27T10:21:06.802Z,9.68
2019-04-27T10:23:38.303Z,13.72
2019-04-27T10:26:08.162Z,9.65
2019-04-27T10:28:38.049Z,13.10
2019-04-27T10:31:08.274Z,9.85
2019-04-27T10:33:37.867Z,10.18
2019-04-27T10:36:07.485Z,9.18
2019-04-27T10:38:36.887Z,10.05
2019-04-27T10:41:07.696Z,9.48
2019-04-27T10:43:37.404Z,9.88
2019-04-27T10:46:07.409Z,8.95
2019-04-27T10:48:37.053Z,9.23
2019-04-27T10:51:07.374Z,7.03
2019-04-27T10:53:38.933Z,6.08
2019-04-27T10:56:08.120Z,6.78
2019-04-27T10:58:38.027Z,8.03
2019-04-27T11:01:09.250Z,9.53
2019-04-27T11:03:57.491Z,7.90
2019-04-27T11:06:31.559Z,7.53
2019-04-27T11:09:01.077Z,6.62
2019-04-27T11:11:56.699Z,6.70
2019-04-27T11:14:26.521Z,6.40
2019-04-27T11:16:56.141Z,6.53
2019-04-27T11:19:26.752Z,6.75
2019-04-27T11:21:56.435Z,9.48
2019-04-27T11:24:26.086Z,7.35
2019-04-27T11:26:56.693Z,10.53
2019-04-27T11:29:27.639Z,7.45
2019-04-27T11:31:57.333Z,9.80
2019-04-27T11:34:45.939Z,9.90
2019-04-27T11:37:17.597Z,12.65
2019-04-27T11:39:47.187Z,11.03
2019-04-27T11:42:16.926Z,13.10
2019-04-27T11:44:47.076Z,11.78
2019-04-27T11:47:16.789Z,8.30
2019-04-27T11:49:46.309Z,7.97
2019-04-27T11:52:15.814Z,7.00
2019-04-27T11:54:45.748Z,7.78
2019-04-27T11:57:15.694Z,7.37
2019-04-27T11:59:45.082Z,7.62
2019-04-27T12:02:15.611Z,10.55
2019-04-27T12:04:46.652Z,6.72
2019-04-27T12:07:16.239Z,7.75
2019-04-27T12:09:46.247Z,8.43
2019-04-27T12:12:21.649Z,6.30
2019-04-27T12:14:48.053Z,7.90
2019-04-27T12:17:17.675Z,6.78
2019-04-27T12:19:47.050Z,6.37
2019-04-27T12:22:16.534Z,6.70
2019-04-27T12:24:45.976Z,6.78
2019-04-27T12:27:17.344Z,8.98
2019-04-27T12:30:03.396Z,5.33
2019-04-27T12:32:32.812Z,5.10
2019-04-27T12:35:02.246Z,8.38
2019-04-27T12:37:32.038Z,5.95
2019-04-27T12:40:01.475Z,4.45
2019-04-27T12:42:30.959Z,5.00
2019-04-27T12:45:01.522Z,5.62
2019-04-27T12:47:31.373Z,5.17
2019-04-27T12:50:00.746Z,5.65
2019-04-27T12:52:30.263Z,4.83
2019-04-27T12:55:01.354Z,5.75
2019-04-27T12:57:41.444Z,6.58
2019-04-27T13:00:13.101Z,6.53
2019-04-27T13:02:42.730Z,7.25
2019-04-27T13:05:12.816Z,6.87
2019-04-27T13:07:42.377Z,6.45
2019-04-27T13:10:12.671Z,6.17
2019-04-27T13:12:43.129Z,4.87
2019-04-27T13:15:12.938Z,4.50
2019-04-27T13:17:42.363Z,4.90
2019-04-27T13:20:13.254Z,7.78
2019-04-27T13:22:42.667Z,6.05
2019-04-27T13:25:12.654Z,6.67
2019-04-27T13:27:42.071Z,5.05
2019-04-27T13:30:12.586Z,5.58
2019-04-27T13:32:41.994Z,4.75
2019-04-27T13:35:11.682Z,7.22
2019-04-27T13:37:42.904Z,5.00
2019-04-27T13:40:17.069Z,5.22
2019-04-27T13:42:57.271Z,4.50
2019-04-27T13:45:43.283Z,4.50
2019-04-27T13:48:30.696Z,5.17
2019-04-27T13:51:13.740Z,5.58
2019-04-27T13:53:43.390Z,4.00
2019-04-27T13:56:17.347Z,8.13
2019-04-27T13:58:47.099Z,4.92
2019-04-27T14:01:16.547Z,5.15
2019-04-27T14:03:45.959Z,5.17
2019-04-27T14:06:15.319Z,5.62
2019-04-27T14:08:44.724Z,4.58
2019-04-27T14:11:14.090Z,5.58
2019-04-27T14:13:43.433Z,5.20
2019-04-27T14:16:12.796Z,4.70
2019-04-27T14:18:42.179Z,3.20
2019-04-27T14:21:11.516Z,4.20
2019-04-27T14:23:40.854Z,4.97
2019-04-27T14:26:10.361Z,4.17
2019-04-27T14:28:39.703Z,6.60
2019-04-27T14:31:09.072Z,4.70
2019-04-27T14:33:39.804Z,2.52
2019-04-27T14:36:09.301Z,2.45
2019-04-27T14:38:38.666Z,8.50
2019-04-27T14:41:09.071Z,2.22
2019-04-27T14:43:38.638Z,1.75
2019-04-27T14:46:08.165Z,2.02
2019-04-27T14:48:39.295Z,3.27
2019-04-27T14:51:08.877Z,3.22
2019-04-27T14:53:38.641Z,5.05
2019-04-27T14:56:08.852Z,3.83
2019-04-27T14:58:40.141Z,7.87
2019-04-27T15:01:09.606Z,5.30
2019-04-27T15:03:38.987Z,3.80
2019-04-27T15:06:09.549Z,4.22
2019-04-27T15:08:42.594Z,3.70
2019-04-27T15:11:14.848Z,5.20
2019-04-27T15:13:43.169Z,5.33
2019-04-27T15:16:12.267Z,3.98
2019-04-27T15:18:43.819Z,4.15
2019-04-27T15:21:13.326Z,6.72
2019-04-27T15:23:42.837Z,4.00
2019-04-27T15:26:15.443Z,3.50
2019-04-27T15:28:49.376Z,4.33
2019-04-27T15:31:24.961Z,4.28
2019-04-27T15:33:54.710Z,4.40
2019-04-27T15:36:40.878Z,3.87
2019-04-27T15:39:30.502Z,4.80
2019-04-27T15:42:08.162Z,5.00
2019-04-27T15:44:36.455Z,3.90
2019-04-27T15:47:10.324Z,6.72
2019-04-27T15:49:38.736Z,3.05
2019-04-27T15:52:09.053Z,3.85
2019-04-27T15:54:38.607Z,4.35
2019-04-27T15:57:12.373Z,7.92
2019-04-27T15:59:40.976Z,4.58
2019-04-27T16:02:15.337Z,6.28
2019-04-27T16:04:44.468Z,6.87
2019-04-27T16:07:13.377Z,5.83
2019-04-27T16:09:42.738Z,6.80
2019-04-27T16:12:12.930Z,9.35
2019-04-27T16:14:44.152Z,59.27
2019-04-27T16:17:13.464Z,46.13
2019-04-27T16:19:47.257Z,51.40
2019-04-27T16:22:14.230Z,12.90
2019-04-27T16:24:43.661Z,7.47
2019-04-27T16:27:13.072Z,5.45
2019-04-27T16:29:42.510Z,7.05
2019-04-27T16:32:11.984Z,8.58
2019-04-27T16:34:41.435Z,10.28
2019-04-27T16:37:14.050Z,5.78
2019-04-27T16:39:45.671Z,5.10
2019-04-27T16:42:15.441Z,7.67
2019-04-27T16:44:51.317Z,5.42
2019-04-27T16:47:17.559Z,5.10
2019-04-27T16:49:48.339Z,2.90
2019-04-27T16:52:19.211Z,3.10
2019-04-27T16:54:57.141Z,3.50
2019-04-27T16:57:21.675Z,50.30
2019-04-27T16:59:57.520Z,5.08
2019-04-27T17:02:25.024Z,5.53
2019-04-27T17:04:55.650Z,3.70
2019-04-27T17:07:24.456Z,7.35
2019-04-27T17:09:53.820Z,5.40
2019-04-27T17:12:23.722Z,6.70
2019-04-27T17:15:05.836Z,6.17
2019-04-27T17:17:42.706Z,8.70
2019-04-27T17:20:13.057Z,7.28
2019-04-27T17:22:45.601Z,12.13
2019-04-27T17:25:15.425Z,6.00
2019-04-27T17:27:49.629Z,9.48
2019-04-27T17:30:19.767Z,5.65
2019-04-27T17:32:51.181Z,5.03
2019-04-27T17:35:20.733Z,9.15
2019-04-27T17:37:50.085Z,6.17
2019-04-27T17:40:19.520Z,7.20
2019-04-27T17:42:48.928Z,6.70
2019-04-27T17:45:21.356Z,5.87
2019-04-27T17:47:49.485Z,6.12
2019-04-27T17:50:24.965Z,6.90
2019-04-27T17:52:54.870Z,7.60
2019-04-27T17:55:24.219Z,4.60
2019-04-27T17:57:52.496Z,4.85
2019-04-27T18:00:22.541Z,7.37
2019-04-27T18:02:52.020Z,8.90
2019-04-27T18:05:21.818Z,6.67
2019-04-27T18:07:51.716Z,7.72
2019-04-27T18:10:24.317Z,10.75
2019-04-27T18:12:52.552Z,4.05
2019-04-27T18:15:22.596Z,3.83
2019-04-27T18:17:53.655Z,5.25
2019-04-27T18:20:29.702Z,3.47
2019-04-27T18:23:15.029Z,3.58
2019-04-27T18:25:45.468Z,4.58
2019-04-27T18:28:19.298Z,8.53
2019-04-27T18:30:56.401Z,5.33
2019-04-27T18:33:25.739Z,4.12
2019-04-27T18:35:58.949Z,4.92
2019-04-27T18:38:26.308Z,4.85
2019-04-27T18:40:55.676Z,5.50
2019-04-27T18:43:25.077Z,4.22
2019-04-27T18:45:54.509Z,6.30
2019-04-27T18:48:37.793Z,7.85
2019-04-27T18:51:15.864Z,8.08
2019-04-27T18:53:45.204Z,7.25
2019-04-27T18:56:14.571Z,9.00
2019-04-27T18:58:43.908Z,7.45
2019-04-27T19:01:13.340Z,8.60
2019-04-27T19:03:42.674Z,8.98
2019-04-27T19:06:12.102Z,9.55
2019-04-27T19:08:41.502Z,6.55
2019-04-27T19:11:10.931Z,4.90
2019-04-27T19:13:40.267Z,6.17
2019-04-27T19:16:09.817Z,5.05
2019-04-27T19:18:39.909Z,6.47
2019-04-27T19:21:09.386Z,6.20
2019-04-27T19:23:40.285Z,7.00
2019-04-27T19:26:11.469Z,6.05
2019-04-27T19:28:51.325Z,8.80
2019-04-27T19:31:29.091Z,6.08
2019-04-27T19:33:58.707Z,1.15
2019-04-27T19:36:30.242Z,2.75
2019-04-27T19:38:59.126Z,1.57
2019-04-27T19:41:28.922Z,0.80
2019-04-27T19:43:59.899Z,2.20
2019-04-27T19:46:30.575Z,0.70
2019-04-27T19:49:00.142Z,0.45
2019-04-27T19:51:29.467Z,0.47
2019-04-27T19:53:58.890Z,1.50
2019-04-27T19:56:28.515Z,2.40
2019-04-27T19:58:59.578Z,1.27
2019-04-27T20:01:36.376Z,1.47
2019-04-27T20:04:08.593Z,1.10
2019-04-27T20:06:38.485Z,1.10
2019-04-27T20:09:12.363Z,2.25
2019-04-27T20:11:41.762Z,1.05
2019-04-27T20:14:11.141Z,1.35
2019-04-27T20:16:41.776Z,1.05
2019-04-27T20:19:11.640Z,0.95
2019-04-27T20:21:41.034Z,1.95
2019-04-27T20:24:11.786Z,1.70
2019-04-27T20:26:41.194Z,1.12
2019-04-27T20:29:11.832Z,1.22
2019-04-27T20:31:41.465Z,3.22
2019-04-27T20:34:10.818Z,1.70
2019-04-27T20:36:41.509Z,2.30
2019-04-27T20:39:11.706Z,1.05
2019-04-27T20:41:41.406Z,3.80
2019-04-27T20:44:12.629Z,2.60
2019-04-27T20:46:41.960Z,1.65
2019-04-27T20:49:15.965Z,1.67
2019-04-27T20:51:51.050Z,3.80
2019-04-27T20:54:22.445Z,3.15
2019-04-27T20:56:53.648Z,1.32
2019-04-27T20:59:22.929Z,1.20
2019-04-27T21:01:52.319Z,2.45
2019-04-27T21:04:23.314Z,1.70
2019-04-27T21:06:54.753Z,1.98
2019-04-27T21:09:24.177Z,2.60
2019-04-27T21:11:53.512Z,2.62
2019-04-27T21:14:22.867Z,1.27
2019-04-27T21:16:52.315Z,1.82
2019-04-27T21:19:21.679Z,2.90
2019-04-27T21:21:51.193Z,1.52
2019-04-27T21:24:20.741Z,2.92
2019-04-27T21:26:51.624Z,2.95
2019-04-27T21:29:21.058Z,4.83
2019-04-27T21:31:52.008Z,1.67
2019-04-27T21:34:21.392Z,2.30
2019-04-27T21:36:51.110Z,1.60
2019-04-27T21:39:21.694Z,1.75
2019-04-27T21:41:51.862Z,2.00
2019-04-27T21:44:21.913Z,2.02
2019-04-27T21:46:51.891Z,2.58
2019-04-27T21:49:23.114Z,5.08
2019-04-27T21:52:03.314Z,2.27
2019-04-27T21:54:34.525Z,4.83
2019-04-27T21:57:04.515Z,5.83
2019-04-27T21:59:33.877Z,2.85
2019-04-27T22:02:04.924Z,4.12
2019-04-27T22:04:34.364Z,4.40
2019-04-27T22:07:03.761Z,3.58
2019-04-27T22:09:33.248Z,3.80
2019-04-27T22:12:02.729Z,4.03
2019-04-27T22:14:32.157Z,2.45
2019-04-27T22:17:01.554Z,2.65
2019-04-27T22:19:31.468Z,5.25
2019-04-27T22:22:02.447Z,3.77
2019-04-27T22:24:33.458Z,4.40
2019-04-27T22:27:02.789Z,5.20
2019-04-27T22:29:35.191Z,4.40
2019-04-27T22:32:04.799Z,6.03
2019-04-27T22:34:34.242Z,9.70
2019-04-27T22:37:03.948Z,4.97
2019-04-27T22:39:34.946Z,3.22
2019-04-27T22:42:05.991Z,5.37
2019-04-27T22:44:36.991Z,4.87
2019-04-27T22:47:06.471Z,5.45
2019-04-27T22:49:35.979Z,3.65
2019-04-27T22:52:05.456Z,4.15
2019-04-27T22:54:34.960Z,3.77
2019-04-27T22:57:06.038Z,3.90
2019-04-27T22:59:37.015Z,6.83
2019-04-27T23:02:29.241Z,4.95
2019-04-27T23:05:02.191Z,4.95
2019-04-27T23:07:31.729Z,5.72
2019-04-27T23:10:01.487Z,4.33
2019-04-27T23:12:31.681Z,4.10
2019-04-27T23:15:01.301Z,7.15
2019-04-27T23:17:51.780Z,6.42
2019-04-27T23:20:21.270Z,7.40
2019-04-27T23:22:51.514Z,6.90
2019-04-27T23:25:21.017Z,5.85
2019-04-27T23:27:51.421Z,8.73
2019-04-27T23:30:22.600Z,5.83
2019-04-27T23:32:53.286Z,4.78
2019-04-27T23:35:22.737Z,9.30
2019-04-27T23:37:52.864Z,5.75
2019-04-27T23:40:22.481Z,6.87
2019-04-27T23:42:51.810Z,7.28
2019-04-27T23:45:22.462Z,8.08
2019-04-27T23:47:51.937Z,6.72
2019-04-27T23:50:21.968Z,9.90
2019-04-27T23:52:58.711Z,5.95
2019-04-27T23:55:31.043Z,6.35
2019-04-27T23:58:00.380Z,6.22
